Terminal Aerodrome Forecast
Issued by NWS

Home | Current Version | Previous Version | Text Only | Print | Product List | Glossary On
Versions: 1 2 3 4 5 6 7 8 9 10 11 12 13 14 15 16 17 18 19 20 21 22 23 24 25 26 27 28 29 30 31 32 33 34 35 36
000
FTUS45 KSLC 160541
TAFEVW
TAF
KEVW 160541Z 1606/1706 24008KT P6SM BKN110
     FM161000 23007KT P6SM VCSH SCT030 BKN070
     FM161400 29008KT 2SM -SN SCT004 BKN009
     FM161900 30011KT 6SM -SN BKN025
     FM162300 34008KT P6SM VCSH BKN030=

USA.gov is the U.S. government's official web portal to all federal, state and local government web resources and services.